Skip to main content

NOAA/GLERL Met Station at Muskegon, MI

Previous 3 Hours (2 minute increments)
See also Previous 5 Days (top of hour)
Jump down to Data
Switch to [English][Metric]
Zoom: Click and drag, Pan: shift-click and drag, Unzoom: double-click, Unzoom All






See also 1-day windrose plot


NOAA/GLERL Met Station at Muskegon, MI

Previous 3 Hours (2 minute increments)
See also Previous 5 Days (top of hour only)
Jump up to Graphs
Switch to [English][Metric]
                  Wind  Wind  Wind   Air   Dew   Rel     Sta   PAR
                   Spd   Gst   Dir  Temp    Pt   Hum    Pres uE/m2/
YYYY-MM-DD   EDT   kts   kts   deg     F     F     %   in Hg   sec
2021-10-23 20:40   7.0   8.2    34  46.2  38.9  75.3   29.39     2
2021-10-23 20:38   6.8   7.4    35  46.2  38.8  75.2   29.39     2
2021-10-23 20:36   6.4   7.0    35  46.2  39.0  75.5   29.39     2
2021-10-23 20:34   6.2   7.2    37  46.0  38.8  75.7   29.39     2
2021-10-23 20:32   6.4   7.4    37  46.0  38.9  75.9   29.39     2
2021-10-23 20:30   6.6   7.4    36  46.2  39.0  75.6   29.39     2
2021-10-23 20:28   7.6   8.4    36  46.2  39.0  75.6   29.39     2
2021-10-23 20:26   7.0   7.8    38  46.4  39.2  75.6   29.39     2
2021-10-23 20:24   6.6   7.2    39  46.6  39.1  75.0   29.39     2
2021-10-23 20:22   5.8   7.0    40  46.6  39.0  74.6   29.39     2
2021-10-23 20:20   5.6   6.6    43  46.8  39.1  74.3   29.39     2
2021-10-23 20:18   5.8   7.0    43  46.8  38.9  73.9   29.39     2
2021-10-23 20:16   6.2   7.0    47  46.8  38.9  73.9   29.39     2
2021-10-23 20:14   6.2   7.4    48  46.8  38.9  73.9   29.39     2
2021-10-23 20:12   5.6   6.8    47  46.8  39.0  74.0   29.39     2
2021-10-23 20:10   6.0   7.0    47  46.8  39.0  74.0   29.39     2
2021-10-23 20:08   6.4   7.4    45  46.8  39.1  74.3   29.39     2
2021-10-23 20:06   6.8   8.2    42  46.9  39.2  74.1   29.39     2
2021-10-23 20:04   6.6   7.6    41  46.9  39.2  74.1   29.39     2
2021-10-23 20:02   6.6   7.4    43  46.9  39.1  74.0   29.39     2
2021-10-23 20:00   6.6   8.2    42  47.1  39.3  74.0   29.39     2
2021-10-23 19:58   6.4   7.4    44  47.1  39.4  74.3   29.39     2
2021-10-23 19:56   6.6   7.4    46  47.1  39.3  73.9   29.39     2
2021-10-23 19:54   6.4   7.6    48  47.1  39.2  73.6   29.39     2
2021-10-23 19:52   6.6   7.2    47  47.1  39.4  74.3   29.39     2
2021-10-23 19:50   6.8   7.6    47  47.1  39.5  74.5   29.39     2
2021-10-23 19:48   6.8   7.6    47  47.1  39.2  73.8   29.39     2
2021-10-23 19:46   7.0   8.4    46  47.1  39.1  73.5   29.38     2
2021-10-23 19:44   7.0   8.4    46  47.1  39.3  73.9   29.38     2
2021-10-23 19:42   7.6   8.9    47  47.1  39.3  74.0   29.39     2
2021-10-23 19:40   7.4   8.9    46  47.1  39.3  73.9   29.39     2
2021-10-23 19:38   7.8   8.7    48  47.1  39.2  73.6   29.38     2
2021-10-23 19:36   8.2   9.3    45  47.3  39.4  73.8   29.38     2
2021-10-23 19:34   7.8   8.9    43  47.3  39.3  73.5   29.38     2
2021-10-23 19:32   7.6   8.6    42  47.5  39.4  73.2   29.38     2
2021-10-23 19:30   7.8   8.7    40  47.5  39.4  73.2   29.39     2
2021-10-23 19:28   7.2   8.4    39  47.7  39.6  73.3   29.38     2
2021-10-23 19:26   7.6   8.6    41  47.7  39.7  73.5   29.38     2
2021-10-23 19:24   6.8   8.4    40  47.7  39.4  72.8   29.38     2
2021-10-23 19:22   7.4   8.0    36  47.7  39.3  72.5   29.38     2
2021-10-23 19:20   6.8   8.4    32  47.7  39.4  72.7   29.38     2
2021-10-23 19:18   6.2   8.2    33  47.7  39.4  72.8   29.38     2
2021-10-23 19:16   7.0   8.4    31  47.7  39.4  72.7   29.38     2
2021-10-23 19:14   6.8   8.7    26  47.8  39.6  72.9   29.38     2
2021-10-23 19:12   7.0   8.4    31  47.8  39.7  73.1   29.38     3
2021-10-23 19:10   7.8   9.3    28  47.8  39.6  72.9   29.38     3
2021-10-23 19:08   7.6  10.3    28  47.8  39.5  72.5   29.38     3
2021-10-23 19:06   8.2  10.3    26  47.8  39.4  72.2   29.38     4
2021-10-23 19:04   8.7  11.1    25  47.8  39.5  72.4   29.38     5
2021-10-23 19:02   9.1  10.9    24  47.8  39.4  72.2   29.38     6
2021-10-23 19:00   8.4  10.3    22  47.8  39.3  72.0   29.38     6
2021-10-23 18:58   8.4   9.7    22  48.0  39.3  71.5   29.38     8
2021-10-23 18:56   8.7  10.5    22  48.0  39.3  71.5   29.38    10
2021-10-23 18:54   8.4  10.1    20  48.2  39.4  71.3   29.38    12
2021-10-23 18:52   8.0  10.1    19  48.4  39.5  71.2   29.38    15
2021-10-23 18:50   8.4   9.9    19  48.6  39.5  70.7   29.38    23
2021-10-23 18:48   8.0   9.7    17  48.6  39.3  70.1   29.38    49
2021-10-23 18:46   7.8   9.3    17  48.6  39.1  69.5   29.38    73
2021-10-23 18:44   8.7  10.7    15  48.6  39.1  69.6   29.38    93
2021-10-23 18:42   8.2  10.1    16  48.6  39.2  69.7   29.38   125
2021-10-23 18:40   8.9  10.3    16  48.6  39.3  70.0   29.38   161
2021-10-23 18:38   8.4  10.1    14  48.6  39.4  70.4   29.38   123
2021-10-23 18:36   8.0   9.1    19  48.6  39.3  70.0   29.38    85
2021-10-23 18:34   8.4  10.5    16  48.7  39.3  69.7   29.38    60
2021-10-23 18:32   8.7  10.9    17  48.9  39.6  69.8   29.38    65
2021-10-23 18:30   8.9  10.7    20  48.9  39.7  70.1   29.38   110
2021-10-23 18:28   7.8   9.7    16  48.9  39.6  69.9   29.38   133
2021-10-23 18:26   8.9  10.9    15  48.9  39.6  69.9   29.38    83
2021-10-23 18:24   7.6   9.1    17  49.1  39.6  69.5   29.38    90
2021-10-23 18:22   7.4   8.2    18  49.3  39.5  68.8   29.38    97
2021-10-23 18:20   8.0   9.1    15  49.5  39.6  68.5   29.37   109
2021-10-23 18:18   7.4   8.9    14  49.5  39.5  68.2   29.38   117
2021-10-23 18:16   6.2   9.1    20  49.6  39.3  67.2   29.37   162
2021-10-23 18:14   7.6  10.1    11  49.8  39.4  67.0   29.37   135
2021-10-23 18:12   7.2  10.5    15  50.0  39.5  66.8   29.37   144
2021-10-23 18:10   7.2   8.9    16  50.2  39.2  65.7   29.37   212
2021-10-23 18:08   7.4  10.1    13  50.4  39.4  65.6   29.37   196
2021-10-23 18:06   7.4   9.7    14  50.5  39.5  65.4   29.37   423
2021-10-23 18:04   7.4   9.3    15  51.1  39.3  63.6   29.37   202
2021-10-23 18:02   7.2   8.6    15  51.6  39.2  62.3   29.36   227
2021-10-23 18:00   7.8   9.9    21  52.2  39.6  62.0   29.36   516
2021-10-23 17:58   6.2   8.0    18  52.2  39.7  62.2   29.36   700
2021-10-23 17:56   7.2   9.7    16  51.8  39.8  63.3   29.36   995
2021-10-23 17:54   5.8   7.4    16  51.3  39.5  63.9   29.37  1026
2021-10-23 17:52   6.4   7.6    16  51.4  39.8  64.1   29.36   484
2021-10-23 17:50   6.2   8.0    14  51.3  39.7  64.3   29.36   612
2021-10-23 17:48   8.0   9.9    16  50.9  39.0  63.5   29.37   881
2021-10-23 17:46   9.3  11.7     6  51.3  39.4  63.5   29.37   361
2021-10-23 17:44   8.0  10.1    15  51.6  39.4  62.6   29.37   388
2021-10-23 17:42   8.2  10.3     4  51.8  39.1  61.6   29.36   424
2021-10-23 17:40  10.5  13.6     0  51.8  39.5  62.5   29.36  1031